Goldvein, Virginia
Current Conditions -  °F | °C
As of 10:35 PM on Monday 20 Oct 2014 (Local Time) from KHWY Reporting Station
Drizzle Drizzle  
Wind Chill: 14°   Ceiling: 7000
Heat Index: 14°   Visibility: 10mi
Dew Point: 12°   Wind: 0mph
Humidity: 86%   Direction: NA
Pressure: 29.95"   Gusts: NA
Location:  38.45°N, 77.65°W
Report Text: KHWY 210235Z AUTO 00000KT 10SM DZ OVC070 14/12 A2995 RMK AO2 T01430120
Loading
Personal Weather Stations






























Interactive Weather Map
Tropical Storm Tracking
New forecast layout! Learn more

10-Day Weather Forecast

Advertisements
Track Severe Weather on mobile